sensor_id;sensor_type;location;lat;lon;timestamp;pressure;altitude;pressure_sealevel;temperature
15626;BMP180;7912;51.376;6.126;2022-10-16T00:01:42;100742.00;;;17.20
15626;BMP180;7912;51.376;6.126;2022-10-16T00:04:10;100734.00;;;17.20
15626;BMP180;7912;51.376;6.126;2022-10-16T00:06:38;100744.00;;;17.20
15626;BMP180;7912;51.376;6.126;2022-10-16T00:09:06;100744.00;;;17.20
15626;BMP180;7912;51.376;6.126;2022-10-16T00:11:37;100737.00;;;17.20
15626;BMP180;7912;51.376;6.126;2022-10-16T00:14:10;100735.00;;;17.20
15626;BMP180;7912;51.376;6.126;2022-10-16T00:16:38;100739.00;;;17.20
15626;BMP180;7912;51.376;6.126;2022-10-16T00:19:06;100748.00;;;17.20
15626;BMP180;7912;51.376;6.126;2022-10-16T00:21:33;100739.00;;;17.20
15626;BMP180;7912;51.376;6.126;2022-10-16T00:24:07;100728.00;;;17.30
15626;BMP180;7912;51.376;6.126;2022-10-16T00:26:39;100726.00;;;17.20
15626;BMP180;7912;51.376;6.126;2022-10-16T00:29:06;100723.00;;;17.20
15626;BMP180;7912;51.376;6.126;2022-10-16T00:31:34;100733.00;;;17.20
15626;BMP180;7912;51.376;6.126;2022-10-16T00:34:02;100737.00;;;17.20
15626;BMP180;7912;51.376;6.126;2022-10-16T00:36:29;100730.00;;;17.20
15626;BMP180;7912;51.376;6.126;2022-10-16T00:38:58;100721.00;;;17.20
15626;BMP180;7912;51.376;6.126;2022-10-16T00:41:28;100725.00;;;17.20
15626;BMP180;7912;51.376;6.126;2022-10-16T00:44:02;100716.00;;;17.20
15626;BMP180;7912;51.376;6.126;2022-10-16T00:46:40;100730.00;;;17.20
15626;BMP180;7912;51.376;6.126;2022-10-16T00:49:12;100732.00;;;17.30
15626;BMP180;7912;51.376;6.126;2022-10-16T00:51:52;100729.00;;;17.30
15626;BMP180;7912;51.376;6.126;2022-10-16T00:54:28;100734.00;;;17.30
15626;BMP180;7912;51.376;6.126;2022-10-16T00:57:00;100726.00;;;17.30
15626;BMP180;7912;51.376;6.126;2022-10-16T00:59:30;100731.00;;;17.30
15626;BMP180;7912;51.376;6.126;2022-10-16T01:02:01;100740.00;;;17.30
15626;BMP180;7912;51.376;6.126;2022-10-16T01:04:37;100737.00;;;17.20
15626;BMP180;7912;51.376;6.126;2022-10-16T01:13:42;100740.00;;;17.10
15626;BMP180;7912;51.376;6.126;2022-10-16T01:16:41;100750.00;;;17.00
15626;BMP180;7912;51.376;6.126;2022-10-16T01:20:17;100743.00;;;17.00
15626;BMP180;7912;51.376;6.126;2022-10-16T01:22:23;100738.00;;;17.00
15626;BMP180;7912;51.376;6.126;2022-10-16T01:24:55;100731.00;;;17.00
15626;BMP180;7912;51.376;6.126;2022-10-16T01:27:35;100729.00;;;16.90
15626;BMP180;7912;51.376;6.126;2022-10-16T01:30:26;100731.00;;;16.90
15626;BMP180;7912;51.376;6.126;2022-10-16T01:33:03;100730.00;;;16.80
15626;BMP180;7912;51.376;6.126;2022-10-16T01:35:43;100726.00;;;16.80
15626;BMP180;7912;51.376;6.126;2022-10-16T01:38:16;100729.00;;;16.80
15626;BMP180;7912;51.376;6.126;2022-10-16T01:40:52;100726.00;;;16.80
15626;BMP180;7912;51.376;6.126;2022-10-16T01:43:35;100728.00;;;16.70
15626;BMP180;7912;51.376;6.126;2022-10-16T01:46:05;100728.00;;;16.70
15626;BMP180;7912;51.376;6.126;2022-10-16T01:48:35;100727.00;;;16.70
15626;BMP180;7912;51.376;6.126;2022-10-16T01:51:23;100733.00;;;16.60
15626;BMP180;7912;51.376;6.126;2022-10-16T01:53:54;100743.00;;;16.60
15626;BMP180;7912;51.376;6.126;2022-10-16T01:56:24;100750.00;;;16.60
15626;BMP180;7912;51.376;6.126;2022-10-16T01:59:07;100751.00;;;16.50
15626;BMP180;7912;51.376;6.126;2022-10-16T02:01:40;100754.00;;;16.50
15626;BMP180;7912;51.376;6.126;2022-10-16T02:04:23;100744.00;;;16.40
15626;BMP180;7912;51.376;6.126;2022-10-16T02:06:53;100751.00;;;16.40
15626;BMP180;7912;51.376;6.126;2022-10-16T02:12:59;100755.00;;;16.20
15626;BMP180;7912;51.376;6.126;2022-10-16T02:15:28;100759.00;;;16.20
15626;BMP180;7912;51.376;6.126;2022-10-16T02:17:55;100761.00;;;16.20
15626;BMP180;7912;51.376;6.126;2022-10-16T02:20:28;100758.00;;;16.20
15626;BMP180;7912;51.376;6.126;2022-10-16T02:23:00;100747.00;;;16.10
15626;BMP180;7912;51.376;6.126;2022-10-16T02:25:37;100752.00;;;16.10
15626;BMP180;7912;51.376;6.126;2022-10-16T02:28:36;100754.00;;;16.10
15626;BMP180;7912;51.376;6.126;2022-10-16T02:31:09;100757.00;;;16.00
15626;BMP180;7912;51.376;6.126;2022-10-16T02:33:40;100743.00;;;16.00
15626;BMP180;7912;51.376;6.126;2022-10-16T02:36:10;100758.00;;;16.00
15626;BMP180;7912;51.376;6.126;2022-10-16T02:38:40;100755.00;;;16.00
15626;BMP180;7912;51.376;6.126;2022-10-16T02:41:08;100753.00;;;16.00
15626;BMP180;7912;51.376;6.126;2022-10-16T02:43:35;100763.00;;;16.00
15626;BMP180;7912;51.376;6.126;2022-10-16T02:46:03;100764.00;;;16.10
15626;BMP180;7912;51.376;6.126;2022-10-16T02:48:30;100767.00;;;16.10
15626;BMP180;7912;51.376;6.126;2022-10-16T02:50:57;100766.00;;;16.10
15626;BMP180;7912;51.376;6.126;2022-10-16T02:53:24;100768.00;;;16.10
15626;BMP180;7912;51.376;6.126;2022-10-16T02:55:52;100775.00;;;16.10
15626;BMP180;7912;51.376;6.126;2022-10-16T02:58:19;100761.00;;;16.10
15626;BMP180;7912;51.376;6.126;2022-10-16T03:00:46;100767.00;;;16.20
15626;BMP180;7912;51.376;6.126;2022-10-16T03:03:14;100754.00;;;16.20
15626;BMP180;7912;51.376;6.126;2022-10-16T03:05:43;100748.00;;;16.20
15626;BMP180;7912;51.376;6.126;2022-10-16T03:08:13;100747.00;;;16.30
15626;BMP180;7912;51.376;6.126;2022-10-16T03:10:40;100735.00;;;16.30
15626;BMP180;7912;51.376;6.126;2022-10-16T03:13:07;100734.00;;;16.30
15626;BMP180;7912;51.376;6.126;2022-10-16T03:15:35;100741.00;;;16.30
15626;BMP180;7912;51.376;6.126;2022-10-16T03:18:02;100747.00;;;16.30
15626;BMP180;7912;51.376;6.126;2022-10-16T03:20:30;100762.00;;;16.40
15626;BMP180;7912;51.376;6.126;2022-10-16T03:22:58;100759.00;;;16.30
15626;BMP180;7912;51.376;6.126;2022-10-16T03:25:25;100742.00;;;16.40
15626;BMP180;7912;51.376;6.126;2022-10-16T03:27:53;100760.00;;;16.40
15626;BMP180;7912;51.376;6.126;2022-10-16T03:30:21;100757.00;;;16.40
15626;BMP180;7912;51.376;6.126;2022-10-16T03:32:48;100769.00;;;16.40
15626;BMP180;7912;51.376;6.126;2022-10-16T03:35:22;100772.00;;;16.40
15626;BMP180;7912;51.376;6.126;2022-10-16T03:37:50;100783.00;;;16.40
15626;BMP180;7912;51.376;6.126;2022-10-16T03:40:18;100778.00;;;16.40
15626;BMP180;7912;51.376;6.126;2022-10-16T03:42:46;100782.00;;;16.40
15626;BMP180;7912;51.376;6.126;2022-10-16T03:45:14;100777.00;;;16.40
15626;BMP180;7912;51.376;6.126;2022-10-16T03:47:41;100780.00;;;16.40
15626;BMP180;7912;51.376;6.126;2022-10-16T03:50:09;100769.00;;;16.50
15626;BMP180;7912;51.376;6.126;2022-10-16T03:52:36;100775.00;;;16.50
15626;BMP180;7912;51.376;6.126;2022-10-16T03:55:04;100767.00;;;16.50
15626;BMP180;7912;51.376;6.126;2022-10-16T03:57:31;100781.00;;;16.50
15626;BMP180;7912;51.376;6.126;2022-10-16T03:59:59;100783.00;;;16.50
15626;BMP180;7912;51.376;6.126;2022-10-16T04:02:26;100777.00;;;16.50
15626;BMP180;7912;51.376;6.126;2022-10-16T04:04:54;100786.00;;;16.50
15626;BMP180;7912;51.376;6.126;2022-10-16T04:07:21;100783.00;;;16.60
15626;BMP180;7912;51.376;6.126;2022-10-16T04:09:49;100786.00;;;16.60
15626;BMP180;7912;51.376;6.126;2022-10-16T04:12:18;100788.00;;;16.60
15626;BMP180;7912;51.376;6.126;2022-10-16T04:14:46;100798.00;;;16.60
15626;BMP180;7912;51.376;6.126;2022-10-16T04:17:13;100793.00;;;16.60
15626;BMP180;7912;51.376;6.126;2022-10-16T04:19:41;100804.00;;;16.70
15626;BMP180;7912;51.376;6.126;2022-10-16T04:22:08;100805.00;;;16.70
15626;BMP180;7912;51.376;6.126;2022-10-16T04:24:35;100817.00;;;16.60
15626;BMP180;7912;51.376;6.126;2022-10-16T04:27:03;100824.00;;;16.60
15626;BMP180;7912;51.376;6.126;2022-10-16T04:29:30;100806.00;;;16.70
15626;BMP180;7912;51.376;6.126;2022-10-16T04:31:58;100811.00;;;16.70
15626;BMP180;7912;51.376;6.126;2022-10-16T04:34:25;100806.00;;;16.70
15626;BMP180;7912;51.376;6.126;2022-10-16T04:36:52;100819.00;;;16.70
15626;BMP180;7912;51.376;6.126;2022-10-16T04:39:20;100824.00;;;16.70
15626;BMP180;7912;51.376;6.126;2022-10-16T04:41:47;100823.00;;;16.70
15626;BMP180;7912;51.376;6.126;2022-10-16T04:44:14;100823.00;;;16.70
15626;BMP180;7912;51.376;6.126;2022-10-16T04:46:42;100803.00;;;16.70
15626;BMP180;7912;51.376;6.126;2022-10-16T04:49:09;100828.00;;;16.70
15626;BMP180;7912;51.376;6.126;2022-10-16T04:51:36;100827.00;;;16.70
15626;BMP180;7912;51.376;6.126;2022-10-16T04:54:04;100827.00;;;16.70
15626;BMP180;7912;51.376;6.126;2022-10-16T04:56:31;100832.00;;;16.80
15626;BMP180;7912;51.376;6.126;2022-10-16T04:58:58;100824.00;;;16.70
15626;BMP180;7912;51.376;6.126;2022-10-16T05:01:26;100829.00;;;16.70
15626;BMP180;7912;51.376;6.126;2022-10-16T05:03:53;100850.00;;;16.70
15626;BMP180;7912;51.376;6.126;2022-10-16T05:06:21;100832.00;;;16.70
15626;BMP180;7912;51.376;6.126;2022-10-16T05:08:48;100848.00;;;16.70
15626;BMP180;7912;51.376;6.126;2022-10-16T05:11:16;100848.00;;;16.70
15626;BMP180;7912;51.376;6.126;2022-10-16T05:13:43;100850.00;;;16.70
15626;BMP180;7912;51.376;6.126;2022-10-16T05:16:11;100847.00;;;16.70
15626;BMP180;7912;51.376;6.126;2022-10-16T05:18:38;100843.00;;;16.70
15626;BMP180;7912;51.376;6.126;2022-10-16T05:21:05;100836.00;;;16.80
15626;BMP180;7912;51.376;6.126;2022-10-16T05:23:33;100831.00;;;16.70
15626;BMP180;7912;51.376;6.126;2022-10-16T05:26:00;100837.00;;;16.70
15626;BMP180;7912;51.376;6.126;2022-10-16T05:28:29;100847.00;;;16.70
15626;BMP180;7912;51.376;6.126;2022-10-16T05:30:57;100850.00;;;16.70
15626;BMP180;7912;51.376;6.126;2022-10-16T05:33:26;100844.00;;;16.70
15626;BMP180;7912;51.376;6.126;2022-10-16T05:35:53;100856.00;;;16.70
15626;BMP180;7912;51.376;6.126;2022-10-16T05:38:21;100867.00;;;16.70
15626;BMP180;7912;51.376;6.126;2022-10-16T05:40:52;100871.00;;;16.70
15626;BMP180;7912;51.376;6.126;2022-10-16T05:43:20;100872.00;;;16.60
15626;BMP180;7912;51.376;6.126;2022-10-16T05:46:00;100867.00;;;16.60
15626;BMP180;7912;51.376;6.126;2022-10-16T05:48:28;100876.00;;;16.60
15626;BMP180;7912;51.376;6.126;2022-10-16T05:51:03;100876.00;;;16.60
15626;BMP180;7912;51.376;6.126;2022-10-16T05:53:34;100889.00;;;16.60
15626;BMP180;7912;51.376;6.126;2022-10-16T05:56:02;100883.00;;;16.60
15626;BMP180;7912;51.376;6.126;2022-10-16T05:58:36;100898.00;;;16.60
15626;BMP180;7912;51.376;6.126;2022-10-16T06:01:08;100902.00;;;16.50
15626;BMP180;7912;51.376;6.126;2022-10-16T06:03:36;100900.00;;;16.50
15626;BMP180;7912;51.376;6.126;2022-10-16T06:06:19;100911.00;;;16.50
15626;BMP180;7912;51.376;6.126;2022-10-16T06:08:48;100921.00;;;16.50
15626;BMP180;7912;51.376;6.126;2022-10-16T06:11:20;100927.00;;;16.50
15626;BMP180;7912;51.376;6.126;2022-10-16T06:13:53;100928.00;;;16.50
15626;BMP180;7912;51.376;6.126;2022-10-16T06:16:21;100920.00;;;16.50
15626;BMP180;7912;51.376;6.126;2022-10-16T06:18:52;100934.00;;;16.50
15626;BMP180;7912;51.376;6.126;2022-10-16T06:21:22;100937.00;;;16.50
15626;BMP180;7912;51.376;6.126;2022-10-16T06:23:52;100919.00;;;16.50
15626;BMP180;7912;51.376;6.126;2022-10-16T06:26:25;100940.00;;;16.50
15626;BMP180;7912;51.376;6.126;2022-10-16T06:28:59;100949.00;;;16.50
15626;BMP180;7912;51.376;6.126;2022-10-16T06:31:28;100953.00;;;16.50
15626;BMP180;7912;51.376;6.126;2022-10-16T06:33:58;100953.00;;;16.50
15626;BMP180;7912;51.376;6.126;2022-10-16T06:36:26;100957.00;;;16.50
15626;BMP180;7912;51.376;6.126;2022-10-16T06:38:54;100961.00;;;16.50
15626;BMP180;7912;51.376;6.126;2022-10-16T06:41:22;100972.00;;;16.50
15626;BMP180;7912;51.376;6.126;2022-10-16T06:43:50;100966.00;;;16.50
15626;BMP180;7912;51.376;6.126;2022-10-16T06:46:23;100977.00;;;16.50
15626;BMP180;7912;51.376;6.126;2022-10-16T06:48:53;100980.00;;;16.50
15626;BMP180;7912;51.376;6.126;2022-10-16T06:51:23;100978.00;;;16.60
15626;BMP180;7912;51.376;6.126;2022-10-16T06:53:53;100992.00;;;16.60
15626;BMP180;7912;51.376;6.126;2022-10-16T06:56:32;101000.00;;;16.50
15626;BMP180;7912;51.376;6.126;2022-10-16T06:59:00;100992.00;;;16.60
15626;BMP180;7912;51.376;6.126;2022-10-16T07:01:28;101010.00;;;16.60
15626;BMP180;7912;51.376;6.126;2022-10-16T07:03:55;101016.00;;;16.60
15626;BMP180;7912;51.376;6.126;2022-10-16T07:06:25;100999.00;;;16.60
15626;BMP180;7912;51.376;6.126;2022-10-16T07:08:53;101012.00;;;16.60
15626;BMP180;7912;51.376;6.126;2022-10-16T07:11:23;101005.00;;;16.70
15626;BMP180;7912;51.376;6.126;2022-10-16T07:13:51;101015.00;;;16.70
15626;BMP180;7912;51.376;6.126;2022-10-16T07:16:31;101006.00;;;16.70
15626;BMP180;7912;51.376;6.126;2022-10-16T07:19:01;101014.00;;;16.70
15626;BMP180;7912;51.376;6.126;2022-10-16T07:21:33;101027.00;;;16.80
15626;BMP180;7912;51.376;6.126;2022-10-16T07:24:13;101033.00;;;16.80
15626;BMP180;7912;51.376;6.126;2022-10-16T07:26:43;101024.00;;;16.80
15626;BMP180;7912;51.376;6.126;2022-10-16T07:29:18;101016.00;;;16.90
15626;BMP180;7912;51.376;6.126;2022-10-16T07:31:48;101033.00;;;16.90
15626;BMP180;7912;51.376;6.126;2022-10-16T07:34:18;101029.00;;;17.00
15626;BMP180;7912;51.376;6.126;2022-10-16T07:36:49;101041.00;;;17.00
15626;BMP180;7912;51.376;6.126;2022-10-16T07:39:17;101041.00;;;17.10
15626;BMP180;7912;51.376;6.126;2022-10-16T07:41:46;101041.00;;;17.10
15626;BMP180;7912;51.376;6.126;2022-10-16T07:44:13;101058.00;;;17.10
15626;BMP180;7912;51.376;6.126;2022-10-16T07:47:20;101068.00;;;17.20
15626;BMP180;7912;51.376;6.126;2022-10-16T07:49:47;101077.00;;;17.20
15626;BMP180;7912;51.376;6.126;2022-10-16T07:52:14;101072.00;;;17.30
15626;BMP180;7912;51.376;6.126;2022-10-16T07:54:42;101069.00;;;17.40
15626;BMP180;7912;51.376;6.126;2022-10-16T07:57:09;101077.00;;;17.40
15626;BMP180;7912;51.376;6.126;2022-10-16T07:59:37;101091.00;;;17.50
15626;BMP180;7912;51.376;6.126;2022-10-16T08:02:05;101082.00;;;17.60
15626;BMP180;7912;51.376;6.126;2022-10-16T08:09:20;101104.00;;;17.60
15626;BMP180;7912;51.376;6.126;2022-10-16T08:11:47;101109.00;;;17.70
15626;BMP180;7912;51.376;6.126;2022-10-16T08:14:15;101117.00;;;17.80
15626;BMP180;7912;51.376;6.126;2022-10-16T08:16:42;101104.00;;;17.80
15626;BMP180;7912;51.376;6.126;2022-10-16T08:19:12;101113.00;;;17.90
15626;BMP180;7912;51.376;6.126;2022-10-16T08:21:41;101115.00;;;18.00
15626;BMP180;7912;51.376;6.126;2022-10-16T08:24:09;101113.00;;;18.00
15626;BMP180;7912;51.376;6.126;2022-10-16T08:26:36;101120.00;;;18.10
15626;BMP180;7912;51.376;6.126;2022-10-16T08:29:04;101120.00;;;18.20
15626;BMP180;7912;51.376;6.126;2022-10-16T08:31:31;101129.00;;;18.20
15626;BMP180;7912;51.376;6.126;2022-10-16T08:33:59;101131.00;;;18.30
15626;BMP180;7912;51.376;6.126;2022-10-16T08:36:26;101132.00;;;18.40
15626;BMP180;7912;51.376;6.126;2022-10-16T08:38:53;101132.00;;;18.40
15626;BMP180;7912;51.376;6.126;2022-10-16T08:50:39;101151.00;;;18.60
15626;BMP180;7912;51.376;6.126;2022-10-16T08:53:13;101163.00;;;18.70
15626;BMP180;7912;51.376;6.126;2022-10-16T08:55:48;101157.00;;;18.80
15626;BMP180;7912;51.376;6.126;2022-10-16T08:58:26;101164.00;;;18.80
15626;BMP180;7912;51.376;6.126;2022-10-16T09:01:01;101160.00;;;18.90
15626;BMP180;7912;51.376;6.126;2022-10-16T09:09:23;101164.00;;;19.20
15626;BMP180;7912;51.376;6.126;2022-10-16T09:12:10;101164.00;;;19.20
15626;BMP180;7912;51.376;6.126;2022-10-16T09:15:24;101182.00;;;19.30
15626;BMP180;7912;51.376;6.126;2022-10-16T09:18:14;101174.00;;;19.30
15626;BMP180;7912;51.376;6.126;2022-10-16T09:23:40;101169.00;;;19.50
15626;BMP180;7912;51.376;6.126;2022-10-16T09:26:15;101177.00;;;19.50
15626;BMP180;7912;51.376;6.126;2022-10-16T09:28:43;101180.00;;;19.60
15626;BMP180;7912;51.376;6.126;2022-10-16T09:31:17;101172.00;;;19.70
15626;BMP180;7912;51.376;6.126;2022-10-16T09:33:58;101176.00;;;19.70
15626;BMP180;7912;51.376;6.126;2022-10-16T09:36:29;101172.00;;;19.80
15626;BMP180;7912;51.376;6.126;2022-10-16T09:39:09;101185.00;;;19.90
15626;BMP180;7912;51.376;6.126;2022-10-16T09:41:43;101180.00;;;19.90
15626;BMP180;7912;51.376;6.126;2022-10-16T09:44:30;101181.00;;;20.10
15626;BMP180;7912;51.376;6.126;2022-10-16T09:47:06;101183.00;;;20.50
15626;BMP180;7912;51.376;6.126;2022-10-16T09:49:52;101182.00;;;21.10
15626;BMP180;7912;51.376;6.126;2022-10-16T09:52:20;101187.00;;;21.70
15626;BMP180;7912;51.376;6.126;2022-10-16T09:54:58;101173.00;;;22.40
15626;BMP180;7912;51.376;6.126;2022-10-16T09:57:26;101178.00;;;22.80
15626;BMP180;7912;51.376;6.126;2022-10-16T09:59:57;101183.00;;;23.40
15626;BMP180;7912;51.376;6.126;2022-10-16T10:02:34;101176.00;;;24.10
15626;BMP180;7912;51.376;6.126;2022-10-16T10:05:04;101174.00;;;24.70
15626;BMP180;7912;51.376;6.126;2022-10-16T10:07:39;101182.00;;;25.30
15626;BMP180;7912;51.376;6.126;2022-10-16T10:10:29;101181.00;;;25.90
15626;BMP180;7912;51.376;6.126;2022-10-16T10:12:58;101178.00;;;26.30
15626;BMP180;7912;51.376;6.126;2022-10-16T10:15:34;101179.00;;;26.80
15626;BMP180;7912;51.376;6.126;2022-10-16T10:18:02;101167.00;;;27.30
15626;BMP180;7912;51.376;6.126;2022-10-16T10:20:43;101172.00;;;27.80
15626;BMP180;7912;51.376;6.126;2022-10-16T10:23:26;101180.00;;;28.30
15626;BMP180;7912;51.376;6.126;2022-10-16T10:26:24;101186.00;;;28.60
15626;BMP180;7912;51.376;6.126;2022-10-16T10:31:39;101195.00;;;28.80
15626;BMP180;7912;51.376;6.126;2022-10-16T10:38:00;101197.00;;;27.80
15626;BMP180;7912;51.376;6.126;2022-10-16T10:41:26;101216.00;;;27.40
15626;BMP180;7912;51.376;6.126;2022-10-16T10:46:51;101224.00;;;26.20
15626;BMP180;7912;51.376;6.126;2022-10-16T10:52:48;101230.00;;;25.20
15626;BMP180;7912;51.376;6.126;2022-10-16T10:59:31;101238.00;;;25.00
15626;BMP180;7912;51.376;6.126;2022-10-16T11:05:12;101236.00;;;24.90
15626;BMP180;7912;51.376;6.126;2022-10-16T11:10:33;101240.00;;;24.80
15626;BMP180;7912;51.376;6.126;2022-10-16T11:15:59;101242.00;;;24.60
15626;BMP180;7912;51.376;6.126;2022-10-16T11:18:45;101243.00;;;24.80
15626;BMP180;7912;51.376;6.126;2022-10-16T11:21:19;101232.00;;;25.10
15626;BMP180;7912;51.376;6.126;2022-10-16T11:24:16;101237.00;;;25.30
15626;BMP180;7912;51.376;6.126;2022-10-16T11:26:48;101239.00;;;25.30
15626;BMP180;7912;51.376;6.126;2022-10-16T11:29:26;101240.00;;;25.10
15626;BMP180;7912;51.376;6.126;2022-10-16T11:32:28;101239.00;;;25.40
15626;BMP180;7912;51.376;6.126;2022-10-16T11:35:08;101238.00;;;25.80
15626;BMP180;7912;51.376;6.126;2022-10-16T11:37:44;101244.00;;;26.00
15626;BMP180;7912;51.376;6.126;2022-10-16T11:40:33;101239.00;;;26.50
15626;BMP180;7912;51.376;6.126;2022-10-16T11:43:15;101236.00;;;27.10
15626;BMP180;7912;51.376;6.126;2022-10-16T11:45:56;101236.00;;;27.80
15626;BMP180;7912;51.376;6.126;2022-10-16T11:48:58;101238.00;;;28.90
15626;BMP180;7912;51.376;6.126;2022-10-16T11:51:42;101226.00;;;29.90
15626;BMP180;7912;51.376;6.126;2022-10-16T11:54:35;101230.00;;;30.70
15626;BMP180;7912;51.376;6.126;2022-10-16T11:57:17;101237.00;;;31.60
15626;BMP180;7912;51.376;6.126;2022-10-16T12:03:39;101249.00;;;32.10
15626;BMP180;7912;51.376;6.126;2022-10-16T12:08:52;101240.00;;;30.70
15626;BMP180;7912;51.376;6.126;2022-10-16T12:17:00;101257.00;;;29.20
15626;BMP180;7912;51.376;6.126;2022-10-16T12:19:30;101254.00;;;28.90
15626;BMP180;7912;51.376;6.126;2022-10-16T12:22:01;101252.00;;;28.80
15626;BMP180;7912;51.376;6.126;2022-10-16T12:24:39;101249.00;;;29.10
15626;BMP180;7912;51.376;6.126;2022-10-16T12:27:40;101249.00;;;29.60
15626;BMP180;7912;51.376;6.126;2022-10-16T12:30:23;101252.00;;;29.60
15626;BMP180;7912;51.376;6.126;2022-10-16T12:33:21;101251.00;;;29.70
15626;BMP180;7912;51.376;6.126;2022-10-16T12:35:50;101245.00;;;30.10
15626;BMP180;7912;51.376;6.126;2022-10-16T12:38:31;101241.00;;;30.60
15626;BMP180;7912;51.376;6.126;2022-10-16T12:41:06;101249.00;;;31.10
15626;BMP180;7912;51.376;6.126;2022-10-16T12:43:45;101263.00;;;31.40
15626;BMP180;7912;51.376;6.126;2022-10-16T12:48:43;101255.00;;;30.90
15626;BMP180;7912;51.376;6.126;2022-10-16T13:10:23;101265.00;;;29.50
15626;BMP180;7912;51.376;6.126;2022-10-16T13:16:30;101282.00;;;28.30
15626;BMP180;7912;51.376;6.126;2022-10-16T13:22:20;101270.00;;;27.50
15626;BMP180;7912;51.376;6.126;2022-10-16T13:25:19;101273.00;;;27.30
15626;BMP180;7912;51.376;6.126;2022-10-16T13:28:03;101263.00;;;27.20
15626;BMP180;7912;51.376;6.126;2022-10-16T13:30:51;101275.00;;;27.10
15626;BMP180;7912;51.376;6.126;2022-10-16T13:33:39;101273.00;;;27.10
15626;BMP180;7912;51.376;6.126;2022-10-16T13:36:25;101273.00;;;27.40
15626;BMP180;7912;51.376;6.126;2022-10-16T13:39:22;101275.00;;;27.80
15626;BMP180;7912;51.376;6.126;2022-10-16T13:42:20;101278.00;;;28.00
15626;BMP180;7912;51.376;6.126;2022-10-16T13:44:55;101285.00;;;28.00
15626;BMP180;7912;51.376;6.126;2022-10-16T13:47:27;101276.00;;;27.90
15626;BMP180;7912;51.376;6.126;2022-10-16T13:50:12;101291.00;;;27.80
15626;BMP180;7912;51.376;6.126;2022-10-16T13:52:39;101297.00;;;27.60
15626;BMP180;7912;51.376;6.126;2022-10-16T13:55:16;101303.00;;;27.40
15626;BMP180;7912;51.376;6.126;2022-10-16T13:57:44;101297.00;;;27.20
15626;BMP180;7912;51.376;6.126;2022-10-16T14:00:25;101294.00;;;26.90
15626;BMP180;7912;51.376;6.126;2022-10-16T14:03:16;101291.00;;;26.80
15626;BMP180;7912;51.376;6.126;2022-10-16T14:05:55;101293.00;;;26.70
15626;BMP180;7912;51.376;6.126;2022-10-16T14:08:26;101305.00;;;26.70
15626;BMP180;7912;51.376;6.126;2022-10-16T14:11:01;101306.00;;;26.70
15626;BMP180;7912;51.376;6.126;2022-10-16T14:13:48;101310.00;;;26.60
15626;BMP180;7912;51.376;6.126;2022-10-16T14:16:26;101311.00;;;26.50
15626;BMP180;7912;51.376;6.126;2022-10-16T14:19:05;101313.00;;;26.40
15626;BMP180;7912;51.376;6.126;2022-10-16T14:21:40;101305.00;;;26.30
15626;BMP180;7912;51.376;6.126;2022-10-16T14:24:14;101307.00;;;26.10
15626;BMP180;7912;51.376;6.126;2022-10-16T14:26:49;101306.00;;;26.00
15626;BMP180;7912;51.376;6.126;2022-10-16T14:29:20;101309.00;;;25.90
15626;BMP180;7912;51.376;6.126;2022-10-16T14:32:26;101305.00;;;25.70
15626;BMP180;7912;51.376;6.126;2022-10-16T14:34:54;101309.00;;;25.60
15626;BMP180;7912;51.376;6.126;2022-10-16T14:37:28;101303.00;;;25.50
15626;BMP180;7912;51.376;6.126;2022-10-16T14:39:57;101306.00;;;25.50
15626;BMP180;7912;51.376;6.126;2022-10-16T14:42:25;101298.00;;;25.40
15626;BMP180;7912;51.376;6.126;2022-10-16T14:44:54;101287.00;;;25.30
15626;BMP180;7912;51.376;6.126;2022-10-16T14:47:25;101292.00;;;25.20
15626;BMP180;7912;51.376;6.126;2022-10-16T14:49:54;101294.00;;;25.10
15626;BMP180;7912;51.376;6.126;2022-10-16T14:52:23;101283.00;;;25.10
15626;BMP180;7912;51.376;6.126;2022-10-16T14:54:51;101278.00;;;25.00
15626;BMP180;7912;51.376;6.126;2022-10-16T14:57:27;101284.00;;;24.90
15626;BMP180;7912;51.376;6.126;2022-10-16T14:59:55;101284.00;;;24.80
15626;BMP180;7912;51.376;6.126;2022-10-16T15:02:32;101285.00;;;24.80
15626;BMP180;7912;51.376;6.126;2022-10-16T15:08:25;101282.00;;;24.70
15626;BMP180;7912;51.376;6.126;2022-10-16T15:10:52;101285.00;;;24.70
15626;BMP180;7912;51.376;6.126;2022-10-16T15:13:20;101280.00;;;24.70
15626;BMP180;7912;51.376;6.126;2022-10-16T15:15:48;101276.00;;;24.70
15626;BMP180;7912;51.376;6.126;2022-10-16T15:18:18;101268.00;;;24.70
15626;BMP180;7912;51.376;6.126;2022-10-16T15:20:50;101265.00;;;24.70
15626;BMP180;7912;51.376;6.126;2022-10-16T15:23:21;101257.00;;;24.60
15626;BMP180;7912;51.376;6.126;2022-10-16T15:25:53;101275.00;;;24.60
15626;BMP180;7912;51.376;6.126;2022-10-16T15:28:22;101273.00;;;24.50
15626;BMP180;7912;51.376;6.126;2022-10-16T15:30:54;101270.00;;;24.40
15626;BMP180;7912;51.376;6.126;2022-10-16T15:33:25;101274.00;;;24.40
15626;BMP180;7912;51.376;6.126;2022-10-16T15:36:05;101274.00;;;24.40
15626;BMP180;7912;51.376;6.126;2022-10-16T15:38:34;101271.00;;;24.30
15626;BMP180;7912;51.376;6.126;2022-10-16T15:41:01;101272.00;;;24.30
15626;BMP180;7912;51.376;6.126;2022-10-16T15:43:29;101269.00;;;24.20
15626;BMP180;7912;51.376;6.126;2022-10-16T15:46:04;101264.00;;;24.10
15626;BMP180;7912;51.376;6.126;2022-10-16T15:48:33;101270.00;;;24.00
15626;BMP180;7912;51.376;6.126;2022-10-16T15:51:07;101269.00;;;23.90
15626;BMP180;7912;51.376;6.126;2022-10-16T15:53:35;101273.00;;;23.80
15626;BMP180;7912;51.376;6.126;2022-10-16T15:56:04;101272.00;;;23.70
15626;BMP180;7912;51.376;6.126;2022-10-16T15:58:32;101257.00;;;23.60
15626;BMP180;7912;51.376;6.126;2022-10-16T16:01:04;101260.00;;;23.50
15626;BMP180;7912;51.376;6.126;2022-10-16T16:03:32;101265.00;;;23.40
15626;BMP180;7912;51.376;6.126;2022-10-16T16:06:06;101275.00;;;23.30
15626;BMP180;7912;51.376;6.126;2022-10-16T16:08:34;101271.00;;;23.20
15626;BMP180;7912;51.376;6.126;2022-10-16T16:11:09;101275.00;;;23.10
15626;BMP180;7912;51.376;6.126;2022-10-16T16:13:37;101277.00;;;23.10
15626;BMP180;7912;51.376;6.126;2022-10-16T16:16:08;101274.00;;;23.00
15626;BMP180;7912;51.376;6.126;2022-10-16T16:18:36;101284.00;;;22.90
15626;BMP180;7912;51.376;6.126;2022-10-16T16:21:05;101283.00;;;22.80
15626;BMP180;7912;51.376;6.126;2022-10-16T16:23:32;101270.00;;;22.70
15626;BMP180;7912;51.376;6.126;2022-10-16T16:26:11;101272.00;;;22.60